메인 페이지
METAR-TAF:

METAR-TAF

공항 :

헨리 코안더 국제공항

부쿠레슈티, 루마니아

위도: 44-33N, 경도: 026-06E, 고도: 95m

현재 날씨관측

예보는 36분 전, 18:00시(UTC)에 발표되었습니다.
북동9kt
온도 11°C
습도 54%
기압 1017 hPa
시정 10km 이상
1500m 미만 상공 구름 및 적란운 없음

METAR: LROP 201800Z 05009KT CAVOK 11/02 Q1017 NOSIG

시각: 20:36 (18:36 UTC)

예보

예보는 1 시간 36분 전, 17:00시(UTC)에 발표되었습니다.
예보 대상 시간: 20일 18시부터 21일 18시까지 (UTC)
여러 방향의 바람 4kt
시정: 8000m
일시적
20일 18시부터 20일 24시까지 (UTC)
동북동10kt
시정: 5000m
박무
확률 30% :
일시적
21일 00시부터 21일 06시까지 (UTC)
시정: 3000m
박무, 약한비

TAF: LROP 201700Z 2018/2118 VRB04KT 8000 NSC TEMPO 2018/2024 07010KT 5000 BR PROB30 TEMPO 2100/2106 3000 BR -RA

4,000개 이상의 공항 관측 자료 및 예보 (METAR 및 TAF 보고).

지도상에서 검색 가능한 기상관측소가 노란 점과 빨간 점으로 표시되어 있습니다.

기상관측소 명을 보려면 표시 위로 마우스를 이동하세요.

날씨 관측과 예보를 보려면 클릭하세요.

지도 변경 : 확대하려면 엑스 표시가 있는 녹색 버튼, 축소하려면 빼기 표시가 있는 녹색 버튼, 다음 페이지의 지도를 보려면 녹색 화살표를 클릭하세요.


METAR-TAF: